Terminal Aerodrome Forecast
Issued by NWS Upton, NY

Home | Current Version | Previous Version | Text Only | Print | Product List | Glossary On
Versions: 1 2 3 4 5 6 7 8 9 10 11 12 13 14 15 16 17 18 19 20 21 22 23 24 25 26 27
000
FTUS41 KOKX 041931 AAA
TAFEWR
TAF AMD
KEWR 041931Z 0420/0524 11011G18KT P6SM SCT025 BKN040
     FM042200 08009KT P6SM FEW050 BKN250
     FM050900 05008KT P6SM SCT250
     FM051900 13009KT P6SM FEW250=

USA.gov is the U.S. government's official web portal to all federal, state and local government web resources and services.